Time;durP1;ratioP1;P1;durP2;ratioP2;P2;SDS_P1;SDS_P2;PMS_P1;PMS_P2;Temp;Humidity;BMP_temperature;BMP_pressure;BME280_temperature;BME280_humidity;BME280_pressure;Samples;Min_cycle;Max_cycle;Signal;HPM_P1;HPM_P2
2022/07/01 00:00:32;;;;;;;2.58;1.35;;;17.50;99.90;;;;;;5112930;28;20055;-70
2022/07/01 00:02:57;;;;;;;2.35;1.00;;;17.60;99.90;;;;;;5112601;28;20050;-70
2022/07/01 00:05:24;;;;;;;2.75;1.13;;;17.50;99.90;;;;;;5112645;28;20035;-70
2022/07/01 00:07:49;;;;;;;2.25;1.33;;;17.50;99.90;;;;;;5111427;28;20058;-70
2022/07/01 00:10:15;;;;;;;8.57;1.55;;;17.60;99.90;;;;;;5111357;28;20040;-69
2022/07/01 00:12:41;;;;;;;1.70;0.88;;;17.60;99.90;;;;;;5111235;28;20035;-69
2022/07/01 00:15:07;;;;;;;3.13;1.30;;;17.60;99.90;;;;;;5112598;28;20044;-69
2022/07/01 00:17:33;;;;;;;4.32;1.10;;;17.60;99.90;;;;;;5112452;28;20040;-69
2022/07/01 00:19:59;;;;;;;3.67;1.00;;;17.60;99.90;;;;;;5112523;28;20053;-69
2022/07/01 00:22:27;;;;;;;1.95;0.90;;;17.50;99.90;;;;;;5112209;28;20367;-69
2022/07/01 00:24:53;;;;;;;6.63;1.10;;;17.50;99.90;;;;;;5112268;28;20486;-70
2022/07/01 00:27:19;;;;;;;3.60;1.25;;;17.50;99.90;;;;;;5111083;28;20082;-69
2022/07/01 00:29:44;;;;;;;4.55;1.10;;;17.50;99.90;;;;;;5112442;28;20063;-69
2022/07/01 00:32:10;;;;;;;4.70;1.20;;;17.50;99.90;;;;;;5112173;28;20506;-69
2022/07/01 00:34:36;;;;;;;4.47;1.00;;;17.60;99.90;;;;;;5112048;28;20093;-70
2022/07/01 00:37:01;;;;;;;3.70;1.10;;;17.50;99.90;;;;;;5112243;28;20044;-69
2022/07/01 00:39:30;;;;;;;4.63;1.02;;;17.50;99.90;;;;;;5112271;28;20036;-69
2022/07/01 00:41:59;;;;;;;2.10;1.02;;;17.60;99.90;;;;;;5112145;28;20468;-69
2022/07/01 00:44:25;;;;;;;2.55;0.90;;;17.50;99.90;;;;;;5109782;28;20104;-69
2022/07/01 00:46:51;;;;;;;2.60;1.20;;;17.50;99.90;;;;;;5112019;28;20052;-69
2022/07/01 00:49:18;;;;;;;2.25;0.80;;;17.50;99.90;;;;;;5110526;28;20160;-69
2022/07/01 00:51:44;;;;;;;2.25;0.93;;;17.50;99.90;;;;;;5112174;28;20038;-70
2022/07/01 00:54:10;;;;;;;1.85;1.08;;;17.50;99.90;;;;;;5110180;28;20156;-69
2022/07/01 00:56:36;;;;;;;2.75;0.80;;;17.60;99.90;;;;;;5110360;28;20036;-69
2022/07/01 00:59:01;;;;;;;2.03;0.60;;;17.50;99.90;;;;;;5110337;28;20547;-70
2022/07/01 01:01:27;;;;;;;2.92;0.90;;;17.50;99.90;;;;;;5111641;28;20556;-69
2022/07/01 01:03:53;;;;;;;2.58;1.00;;;17.50;99.90;;;;;;5111240;28;20392;-69
2022/07/01 01:06:19;;;;;;;1.80;0.90;;;17.50;99.90;;;;;;5111690;28;20356;-70
2022/07/01 01:08:46;;;;;;;1.75;0.70;;;17.40;99.90;;;;;;5111752;28;20050;-69
2022/07/01 01:11:11;;;;;;;2.30;0.70;;;17.40;99.90;;;;;;5111318;27;20032;-70
2022/07/01 01:13:37;;;;;;;0.88;0.77;;;17.40;99.90;;;;;;5111029;28;20384;-69
2022/07/01 01:16:03;;;;;;;2.40;0.80;;;17.40;99.90;;;;;;5111524;28;20070;-69
2022/07/01 01:18:28;;;;;;;0.70;0.60;;;17.40;99.90;;;;;;5111397;28;20035;-69
2022/07/01 01:20:55;;;;;;;0.63;0.63;;;17.30;99.90;;;;;;5111564;28;20456;-69
2022/07/01 01:23:20;;;;;;;3.33;0.85;;;17.40;99.90;;;;;;5111401;28;20067;-69
2022/07/01 01:25:49;;;;;;;0.88;0.65;;;17.40;99.90;;;;;;5110666;28;20463;-69
2022/07/01 01:28:15;;;;;;;0.80;0.80;;;17.30;99.90;;;;;;5111184;28;20683;-69
2022/07/01 01:30:40;;;;;;;0.75;0.70;;;17.30;99.90;;;;;;5111294;28;20118;-69
2022/07/01 01:33:09;;;;;;;1.13;0.68;;;17.30;99.90;;;;;;5109501;28;20040;-69
2022/07/01 01:35:35;;;;;;;1.60;0.80;;;17.30;99.90;;;;;;5111080;28;20039;-69
2022/07/01 01:38:00;;;;;;;2.20;0.70;;;17.20;99.90;;;;;;5109630;28;20545;-69
2022/07/01 01:40:26;;;;;;;0.77;0.70;;;17.10;99.90;;;;;;5111112;28;20096;-69
2022/07/01 01:42:52;;;;;;;1.55;0.82;;;17.20;99.90;;;;;;5110794;28;20036;-70
2022/07/01 01:45:18;;;;;;;1.70;0.90;;;17.20;99.90;;;;;;5109445;28;20035;-68
2022/07/01 01:47:44;;;;;;;0.88;0.73;;;17.20;99.90;;;;;;5109647;28;20069;-69
2022/07/01 01:50:12;;;;;;;0.80;0.75;;;17.20;99.90;;;;;;5109599;28;20547;-69
2022/07/01 01:52:38;;;;;;;0.70;0.70;;;17.10;99.90;;;;;;5109189;28;20046;-69
2022/07/01 01:55:04;;;;;;;1.48;0.75;;;17.20;99.90;;;;;;5108909;28;20267;-68
2022/07/01 01:57:30;;;;;;;2.88;0.90;;;17.20;99.90;;;;;;5108972;28;20491;-69
2022/07/01 01:59:56;;;;;;;1.85;1.15;;;17.20;99.90;;;;;;5109384;28;20043;-69
2022/07/01 02:02:21;;;;;;;3.25;1.50;;;17.10;99.90;;;;;;5092188;28;20059;-69
2022/07/01 02:04:47;;;;;;;3.78;2.72;;;17.10;99.90;;;;;;5109347;28;20036;-69
2022/07/01 02:07:13;;;;;;;11.45;3.58;;;17.10;99.90;;;;;;5109322;28;20040;-69
2022/07/01 02:09:38;;;;;;;9.90;4.70;;;17.20;99.90;;;;;;5109387;28;20803;-69
2022/07/01 02:12:04;;;;;;;7.05;5.88;;;17.10;99.90;;;;;;5109607;28;20584;-69
2022/07/01 02:14:30;;;;;;;10.05;7.90;;;17.10;99.90;;;;;;5110464;28;20040;-70
2022/07/01 02:16:55;;;;;;;12.15;10.57;;;17.10;99.90;;;;;;5109278;28;20040;-69
2022/07/01 02:19:21;;;;;;;16.63;13.02;;;17.10;99.90;;;;;;5109209;28;20044;-70
2022/07/01 02:21:46;;;;;;;18.92;13.77;;;17.10;99.90;;;;;;5110531;28;20047;-69
2022/07/01 02:24:12;;;;;;;19.40;13.63;;;17.10;99.90;;;;;;5110220;28;20135;-69
2022/07/01 02:26:38;;;;;;;19.60;14.98;;;17.20;99.90;;;;;;5110627;28;20040;-70
2022/07/01 02:29:04;;;;;;;19.55;14.02;;;17.20;99.90;;;;;;5110637;28;20775;-69
2022/07/01 02:31:29;;;;;;;21.25;13.25;;;17.20;99.90;;;;;;5109178;28;20062;-69
2022/07/01 02:33:55;;;;;;;16.40;12.63;;;17.20;99.90;;;;;;5109036;28;20046;-69
2022/07/01 02:36:20;;;;;;;14.90;12.38;;;17.20;99.90;;;;;;5109254;28;20096;-69
2022/07/01 02:38:46;;;;;;;16.95;12.25;;;17.20;99.90;;;;;;5110375;28;20044;-69
2022/07/01 02:41:11;;;;;;;18.05;11.82;;;17.10;99.90;;;;;;5110634;28;20036;-69
2022/07/01 02:43:37;;;;;;;17.95;12.35;;;17.10;99.90;;;;;;5110271;28;20115;-69
2022/07/01 02:46:03;;;;;;;16.27;11.85;;;17.20;99.90;;;;;;5109098;28;20044;-70
2022/07/01 02:48:28;;;;;;;15.82;11.50;;;17.10;99.90;;;;;;5110425;28;20067;-69
2022/07/01 02:50:54;;;;;;;17.27;12.43;;;17.10;99.90;;;;;;5110209;28;20051;-69
2022/07/01 02:53:19;;;;;;;16.75;11.27;;;17.10;99.90;;;;;;5110311;28;20042;-70
2022/07/01 02:55:45;;;;;;;19.95;12.13;;;17.00;99.90;;;;;;5110203;28;20052;-69
2022/07/01 02:58:10;;;;;;;16.58;11.57;;;17.10;99.90;;;;;;5110399;28;20095;-69
2022/07/01 03:00:36;;;;;;;14.65;12.00;;;17.10;99.90;;;;;;5110135;28;20506;-69
2022/07/01 03:03:02;;;;;;;16.95;11.52;;;17.00;99.90;;;;;;5109949;28;20047;-69
2022/07/01 03:05:28;;;;;;;14.50;10.68;;;17.00;99.90;;;;;;5108957;28;20059;-69
2022/07/01 03:07:54;;;;;;;14.15;10.65;;;17.10;99.90;;;;;;5112376;28;20074;-69
2022/07/01 03:10:19;;;;;;;14.57;9.30;;;17.10;99.90;;;;;;5112625;28;20062;-69
2022/07/01 03:12:45;;;;;;;14.48;10.20;;;17.00;99.90;;;;;;5112210;28;20057;-69
2022/07/01 03:15:13;;;;;;;14.10;10.38;;;17.00;99.90;;;;;;5112380;28;20044;-70
2022/07/01 03:17:41;;;;;;;17.42;9.93;;;17.00;99.90;;;;;;5113837;28;20039;-69
2022/07/01 03:20:09;;;;;;;13.55;9.77;;;16.90;99.90;;;;;;5113639;28;20115;-69
2022/07/01 03:22:35;;;;;;;11.77;9.52;;;17.00;99.90;;;;;;5113341;28;20392;-69
2022/07/01 03:25:02;;;;;;;14.43;10.98;;;17.00;99.90;;;;;;5113697;28;20036;-70
2022/07/01 03:27:29;;;;;;;15.95;10.65;;;16.90;99.90;;;;;;5112520;28;20448;-69
2022/07/01 03:29:55;;;;;;;13.38;9.93;;;17.00;99.90;;;;;;5113591;28;20038;-69
2022/07/01 03:32:21;;;;;;;13.82;10.25;;;17.00;99.90;;;;;;5111373;28;20036;-70
2022/07/01 03:34:49;;;;;;;14.73;9.57;;;17.00;99.90;;;;;;5110101;28;20100;-69
2022/07/01 03:37:15;;;;;;;14.73;10.20;;;16.80;99.90;;;;;;5111118;28;20062;-69
2022/07/01 03:39:42;;;;;;;15.82;10.77;;;16.80;99.90;;;;;;5112922;28;20066;-69
2022/07/01 03:42:08;;;;;;;17.98;10.55;;;16.80;99.90;;;;;;5112255;28;20039;-69
2022/07/01 03:44:35;;;;;;;13.57;10.73;;;16.80;99.90;;;;;;5112880;28;20079;-69
2022/07/01 03:47:02;;;;;;;14.02;10.30;;;16.80;99.90;;;;;;5112078;28;20040;-69
2022/07/01 03:49:28;;;;;;;16.15;10.55;;;16.80;99.90;;;;;;5111077;28;20134;-69
2022/07/01 03:51:54;;;;;;;14.63;11.10;;;16.80;99.90;;;;;;5112154;28;20043;-70
2022/07/01 03:54:38;;;;;;;17.90;12.20;;;16.70;99.90;;;;;;5111680;28;20039;-69
2022/07/01 03:57:09;;;;;;;16.63;12.13;;;16.70;99.90;;;;;;5111527;28;20054;-69
2022/07/01 03:59:37;;;;;;;17.05;12.18;;;16.70;99.90;;;;;;5111804;28;20494;-69
2022/07/01 04:02:04;;;;;;;18.77;12.57;;;16.70;99.90;;;;;;5112638;28;20074;-69
2022/07/01 04:04:29;;;;;;;23.55;14.45;;;16.60;99.90;;;;;;5112719;28;20390;-69
2022/07/01 04:06:57;;;;;;;18.23;13.73;;;16.60;99.90;;;;;;5112692;28;20036;-69
2022/07/01 04:09:24;;;;;;;19.45;13.75;;;16.60;99.90;;;;;;5112605;28;20180;-69
2022/07/01 04:11:50;;;;;;;21.05;14.55;;;16.60;99.90;;;;;;5112660;28;20179;-69
2022/07/01 04:14:16;;;;;;;22.55;14.95;;;16.60;99.90;;;;;;5110841;28;20059;-70
2022/07/01 04:16:43;;;;;;;20.90;15.57;;;16.60;99.90;;;;;;5112586;28;20400;-70
2022/07/01 04:19:09;;;;;;;24.17;17.05;;;16.60;99.90;;;;;;5111599;28;20497;-69
2022/07/01 04:24:19;;;;;;;26.45;16.30;;;16.60;99.90;;;;;;5112257;28;20407;-69
2022/07/01 04:26:45;;;;;;;24.42;16.80;;;16.50;99.90;;;;;;5112350;28;20076;-69
2022/07/01 04:29:11;;;;;;;23.10;17.75;;;16.50;99.90;;;;;;5112455;28;20035;-70
2022/07/01 04:31:38;;;;;;;25.13;17.88;;;16.50;99.90;;;;;;5112560;28;20047;-70
2022/07/01 04:34:05;;;;;;;26.48;18.35;;;16.50;99.90;;;;;;5112106;28;20045;-69
2022/07/01 04:36:30;;;;;;;24.15;17.55;;;16.50;99.90;;;;;;5112368;28;20039;-70
2022/07/01 04:38:57;;;;;;;27.65;18.60;;;16.50;99.90;;;;;;5112231;28;20578;-69
2022/07/01 04:44:06;;;;;;;30.65;19.10;;;16.40;99.90;;;;;;5110757;28;20415;-69
2022/07/01 04:46:32;;;;;;;29.23;20.15;;;16.40;99.90;;;;;;5110815;28;20048;-69
2022/07/01 04:48:57;;;;;;;27.85;18.88;;;16.40;99.90;;;;;;5112166;28;20077;-69
2022/07/01 04:51:23;;;;;;;28.35;20.15;;;16.30;99.90;;;;;;5112016;28;20112;-69
2022/07/01 04:53:49;;;;;;;26.30;20.05;;;16.40;99.90;;;;;;5111540;28;20534;-70
2022/07/01 04:56:15;;;;;;;26.38;19.55;;;16.40;99.90;;;;;;5111603;28;20067;-69
2022/07/01 04:58:40;;;;;;;30.80;20.80;;;16.40;99.90;;;;;;5110382;28;20047;-69
2022/07/01 05:01:06;;;;;;;29.80;20.80;;;16.40;99.90;;;;;;5110647;28;20035;-70
2022/07/01 05:03:32;;;;;;;29.83;21.67;;;16.40;99.90;;;;;;5110136;28;20069;-70
2022/07/01 05:05:57;;;;;;;28.08;20.83;;;16.40;99.90;;;;;;5110063;28;20040;-70
2022/07/01 05:08:23;;;;;;;30.13;20.75;;;16.40;99.90;;;;;;5111592;28;20031;-70
2022/07/01 05:10:48;;;;;;;30.65;21.27;;;16.40;99.90;;;;;;5110424;28;20151;-70
2022/07/01 05:13:14;;;;;;;30.27;20.80;;;16.50;99.90;;;;;;5111340;28;20031;-69
2022/07/01 05:15:40;;;;;;;31.45;20.95;;;16.50;99.90;;;;;;5111327;28;20040;-70
2022/07/01 05:23:35;;;;;;;30.15;21.83;;;16.40;99.90;;;;;;5109994;28;20142;-70
2022/07/01 05:26:01;;;;;;;29.25;21.77;;;16.50;99.90;;;;;;5111098;28;20043;-69
2022/07/01 05:28:27;;;;;;;31.60;21.77;;;16.50;99.90;;;;;;5111377;27;20035;-70
2022/07/01 05:30:53;;;;;;;35.00;22.30;;;16.40;99.90;;;;;;5109830;28;20568;-70
2022/07/01 05:33:21;;;;;;;28.65;21.58;;;16.40;99.90;;;;;;5110924;28;20039;-69
2022/07/01 05:35:47;;;;;;;29.90;22.83;;;16.50;99.90;;;;;;5109901;28;20466;-69
2022/07/01 05:38:12;;;;;;;33.13;22.67;;;16.50;99.90;;;;;;5111149;28;20036;-69
2022/07/01 05:40:38;;;;;;;35.00;22.73;;;16.40;99.90;;;;;;5111228;28;20498;-70
2022/07/01 05:43:04;;;;;;;30.08;21.55;;;16.40;99.90;;;;;;5109771;28;20104;-69
2022/07/01 05:45:29;;;;;;;30.40;22.13;;;16.50;99.90;;;;;;5110876;28;20043;-69
2022/07/01 05:47:56;;;;;;;34.10;22.90;;;16.40;99.90;;;;;;5111132;28;20047;-69
2022/07/01 05:50:22;;;;;;;32.45;23.25;;;16.40;99.90;;;;;;5109532;28;20487;-69
2022/07/01 05:52:48;;;;;;;33.30;22.45;;;16.40;99.90;;;;;;5110722;28;20060;-70
2022/07/01 05:55:13;;;;;;;31.88;22.45;;;16.40;99.90;;;;;;5110951;28;20483;-69
2022/07/01 05:57:39;;;;;;;34.78;23.00;;;16.40;99.90;;;;;;5109698;28;20047;-69
2022/07/01 06:00:05;;;;;;;30.95;21.58;;;16.40;99.90;;;;;;5110934;28;20051;-69
2022/07/01 06:02:31;;;;;;;31.33;21.98;;;16.40;99.90;;;;;;5110588;27;20524;-70
2022/07/01 06:04:59;;;;;;;35.33;22.58;;;16.40;99.90;;;;;;5110598;28;20093;-69
2022/07/01 06:07:24;;;;;;;36.72;23.60;;;16.30;99.90;;;;;;5109685;28;20109;-69
2022/07/01 06:09:50;;;;;;;35.58;22.67;;;16.30;99.90;;;;;;5110797;28;20467;-69
2022/07/01 06:12:15;;;;;;;29.75;22.00;;;16.30;99.90;;;;;;5110599;28;20043;-69
2022/07/01 06:14:41;;;;;;;35.20;22.70;;;16.30;99.90;;;;;;5110546;28;20040;-69
2022/07/01 06:17:08;;;;;;;36.03;22.70;;;16.40;99.90;;;;;;5109669;28;20051;-69
2022/07/01 06:19:33;;;;;;;32.63;22.75;;;16.50;99.90;;;;;;5110613;28;20042;-69
2022/07/01 06:21:59;;;;;;;34.42;23.88;;;16.50;99.90;;;;;;5110622;28;20040;-69
2022/07/01 06:24:24;;;;;;;32.03;22.52;;;16.60;99.90;;;;;;5110419;28;20508;-69
2022/07/01 06:26:50;;;;;;;28.85;22.13;;;16.50;99.90;;;;;;5110739;28;20482;-69
2022/07/01 06:29:15;;;;;;;30.10;22.20;;;16.50;99.90;;;;;;5109291;28;20058;-69
2022/07/01 06:31:41;;;;;;;29.95;22.70;;;16.60;99.90;;;;;;5110433;28;20043;-69
2022/07/01 06:34:06;;;;;;;33.83;22.63;;;16.60;99.90;;;;;;5110136;28;20039;-69
2022/07/01 06:36:32;;;;;;;34.67;22.42;;;16.60;99.90;;;;;;5110452;28;20039;-69
2022/07/01 06:38:58;;;;;;;35.75;22.00;;;16.60;99.90;;;;;;5109199;28;20092;-69
2022/07/01 06:41:26;;;;;;;38.03;22.90;;;16.80;99.90;;;;;;5110539;28;20089;-69
2022/07/01 06:43:53;;;;;;;32.03;21.45;;;16.60;99.90;;;;;;5113092;28;20067;-69
2022/07/01 06:46:19;;;;;;;34.88;22.65;;;16.50;99.90;;;;;;5112874;28;20063;-69
2022/07/01 06:48:44;;;;;;;35.08;23.13;;;16.50;99.90;;;;;;5113030;28;20616;-69
2022/07/01 06:51:10;;;;;;;34.08;24.25;;;16.60;99.90;;;;;;5114290;28;20044;-69
2022/07/01 06:53:35;;;;;;;35.40;23.10;;;16.50;99.90;;;;;;5112663;28;20071;-69
2022/07/01 06:56:01;;;;;;;32.58;23.83;;;16.60;99.90;;;;;;5092337;28;20461;-69
2022/07/01 06:58:26;;;;;;;33.20;22.77;;;16.50;99.90;;;;;;5074712;28;20044;-69
2022/07/01 07:00:52;;;;;;;31.27;23.02;;;16.50;99.90;;;;;;5073419;28;20048;-69
2022/07/01 07:03:18;;;;;;;34.90;23.83;;;16.50;99.90;;;;;;5071864;28;20035;-68
2022/07/01 07:05:43;;;;;;;30.90;23.45;;;16.60;99.90;;;;;;5073241;28;20051;-68
2022/07/01 07:08:09;;;;;;;34.22;23.50;;;16.60;99.90;;;;;;5072024;28;20055;-68
2022/07/01 07:10:34;;;;;;;36.50;23.27;;;16.60;99.90;;;;;;5072225;28;20041;-68
2022/07/01 07:13:00;;;;;;;31.90;22.90;;;16.60;99.90;;;;;;5073065;28;20032;-68
2022/07/01 07:15:25;;;;;;;35.83;24.05;;;16.60;99.90;;;;;;5071972;28;20058;-67
2022/07/01 07:17:51;;;;;;;31.25;22.52;;;16.60;99.90;;;;;;5055076;28;20047;-68
2022/07/01 07:20:17;;;;;;;38.10;23.33;;;16.60;99.90;;;;;;5073303;28;20512;-68
2022/07/01 07:22:42;;;;;;;35.75;23.52;;;16.60;99.90;;;;;;5074147;28;20040;-70
2022/07/01 07:25:08;;;;;;;37.60;23.05;;;16.70;99.90;;;;;;5073995;28;20102;-68
2022/07/01 07:27:33;;;;;;;35.95;23.30;;;16.70;99.90;;;;;;5073431;28;20493;-71
2022/07/01 07:29:59;;;;;;;33.38;23.00;;;16.70;99.90;;;;;;5073627;28;20036;-69
2022/07/01 07:32:25;;;;;;;33.22;23.70;;;16.70;99.90;;;;;;5072722;28;20047;-68
2022/07/01 07:34:50;;;;;;;31.08;21.58;;;16.80;99.90;;;;;;5072681;28;20090;-72
2022/07/01 07:37:16;;;;;;;33.03;22.77;;;16.90;99.90;;;;;;5072995;28;20185;-70
2022/07/01 07:39:41;;;;;;;33.20;23.13;;;17.00;99.90;;;;;;5071393;28;20063;-68
2022/07/01 07:42:07;;;;;;;33.47;22.17;;;17.00;99.90;;;;;;5072932;28;20052;-68
2022/07/01 07:44:32;;;;;;;31.30;21.73;;;17.00;99.90;;;;;;5072277;28;20037;-69
2022/07/01 07:46:58;;;;;;;33.10;21.27;;;17.10;99.90;;;;;;5072616;28;20047;-68
2022/07/01 07:49:24;;;;;;;30.60;21.88;;;17.30;99.90;;;;;;5071461;28;20036;-69
2022/07/01 07:51:51;;;;;;;35.38;21.70;;;17.20;99.90;;;;;;5072571;28;20047;-68
2022/07/01 07:54:16;;;;;;;30.27;20.83;;;17.30;99.90;;;;;;5071079;28;20433;-68
2022/07/01 07:56:42;;;;;;;28.30;21.02;;;17.40;99.90;;;;;;5071083;28;20072;-68
2022/07/01 07:59:08;;;;;;;27.42;20.05;;;17.30;99.90;;;;;;5072496;28;20046;-68
2022/07/01 08:01:34;;;;;;;31.05;20.60;;;17.40;99.90;;;;;;5072328;28;20082;-68
2022/07/01 08:03:59;;;;;;;29.98;20.13;;;17.30;99.90;;;;;;5070687;28;20123;-69
2022/07/01 08:06:25;;;;;;;30.40;20.13;;;17.30;99.90;;;;;;5070909;28;20052;-68
2022/07/01 08:08:51;;;;;;;31.48;20.48;;;17.40;99.90;;;;;;5072272;28;20350;-68
2022/07/01 08:11:16;;;;;;;30.38;20.17;;;17.50;99.90;;;;;;5070795;28;20040;-68
2022/07/01 08:13:43;;;;;;;33.38;20.63;;;17.60;99.90;;;;;;5071781;28;20408;-68
2022/07/01 08:16:09;;;;;;;33.20;19.80;;;17.70;99.90;;;;;;5070876;28;20377;-69
2022/07/01 08:18:35;;;;;;;27.48;18.88;;;17.70;99.90;;;;;;5053952;28;20082;-69
2022/07/01 08:21:00;;;;;;;30.90;18.98;;;17.70;99.90;;;;;;5070571;28;20461;-69
2022/07/01 08:23:26;;;;;;;31.08;18.45;;;17.80;99.90;;;;;;5071735;28;20123;-69
2022/07/01 08:25:52;;;;;;;21.10;16.42;;;17.80;99.90;;;;;;5071805;28;20044;-69
2022/07/01 08:28:17;;;;;;;24.40;16.33;;;18.00;99.90;;;;;;5071894;28;20392;-69
2022/07/01 08:30:43;;;;;;;23.73;16.55;;;18.10;99.90;;;;;;5071668;28;20040;-69
2022/07/01 08:33:09;;;;;;;31.02;17.85;;;18.00;99.90;;;;;;5070054;28;20036;-68
2022/07/01 08:35:35;;;;;;;25.58;16.65;;;18.00;99.90;;;;;;5071573;28;20048;-69
2022/07/01 08:38:01;;;;;;;27.13;16.13;;;18.10;99.90;;;;;;5071650;28;20037;-68
2022/07/01 08:40:29;;;;;;;28.17;16.80;;;18.20;99.90;;;;;;5071692;28;20040;-69
2022/07/01 08:42:59;;;;;;;23.55;15.63;;;18.30;99.90;;;;;;5074883;28;20485;-68
2022/07/01 08:45:30;;;;;;;25.15;15.73;;;18.40;99.90;;;;;;5090249;28;20491;-69
2022/07/01 08:48:00;;;;;;;23.40;15.68;;;18.50;99.90;;;;;;5091643;28;20525;-68
2022/07/01 08:50:27;;;;;;;26.25;15.07;;;18.60;99.90;;;;;;5091407;28;20036;-68
2022/07/01 08:52:53;;;;;;;23.48;13.52;;;18.70;99.90;;;;;;5091212;28;20078;-70
2022/07/01 08:55:23;;;;;;;19.40;12.90;;;18.70;99.90;;;;;;5090340;28;20080;-70
2022/07/01 08:57:49;;;;;;;22.80;13.15;;;18.70;99.90;;;;;;5091903;28;20036;-70
2022/07/01 09:00:16;;;;;;;21.92;13.48;;;18.80;99.90;;;;;;5091780;28;20046;-70
2022/07/01 09:03:03;;;;;;;26.23;14.20;;;18.90;99.90;;;;;;5091248;28;20035;-70
2022/07/01 09:05:31;;;;;;;25.42;13.02;;;18.90;99.90;;;;;;5090655;28;20043;-70
2022/07/01 09:07:59;;;;;;;26.05;13.68;;;18.90;99.90;;;;;;5089983;28;20086;-70
2022/07/01 09:10:25;;;;;;;20.70;12.40;;;19.00;99.90;;;;;;5091145;28;20044;-70
2022/07/01 09:12:50;;;;;;;23.83;12.52;;;19.00;99.90;;;;;;5089695;28;20119;-70
2022/07/01 09:15:29;;;;;;;17.92;11.55;;;19.10;99.90;;;;;;5091136;28;20059;-70
2022/07/01 09:18:15;;;;;;;16.90;9.95;;;19.00;99.90;;;;;;5089807;28;20036;-70
2022/07/01 09:20:47;;;;;;;17.27;8.73;;;19.00;99.90;;;;;;5089725;28;20040;-69
2022/07/01 09:23:15;;;;;;;18.15;9.15;;;19.00;99.90;;;;;;5089593;28;20101;-69
2022/07/01 09:25:43;;;;;;;15.90;9.80;;;19.00;99.90;;;;;;5089047;28;20048;-69
2022/07/01 09:28:16;;;;;;;19.73;10.27;;;19.00;99.90;;;;;;5091248;28;20036;-69
2022/07/01 09:30:44;;;;;;;19.88;11.18;;;19.00;99.90;;;;;;5089534;28;20105;-69
2022/07/01 09:33:15;;;;;;;17.38;10.48;;;18.90;99.90;;;;;;5090930;28;20036;-69
2022/07/01 09:35:42;;;;;;;17.88;9.65;;;18.90;99.90;;;;;;5089717;28;20399;-69
2022/07/01 09:38:14;;;;;;;12.02;8.27;;;19.00;99.90;;;;;;5090662;28;20108;-70
2022/07/01 09:40:49;;;;;;;14.32;8.88;;;18.90;99.90;;;;;;5090802;28;20499;-68
2022/07/01 09:43:19;;;;;;;19.05;8.48;;;19.00;99.90;;;;;;5090602;28;20673;-69
2022/07/01 09:45:56;;;;;;;14.00;7.18;;;18.90;99.90;;;;;;5090487;28;20752;-69
2022/07/01 09:48:23;;;;;;;11.82;7.20;;;19.00;99.90;;;;;;5090656;28;20158;-69
2022/07/01 09:50:50;;;;;;;12.95;7.28;;;18.90;99.90;;;;;;5090499;28;20775;-69
2022/07/01 09:53:16;;;;;;;13.95;6.05;;;19.00;99.90;;;;;;5090238;28;20519;-68
2022/07/01 09:55:42;;;;;;;17.92;6.93;;;19.10;99.90;;;;;;5090637;28;20040;-69
2022/07/01 09:58:08;;;;;;;15.80;6.28;;;19.30;99.90;;;;;;5089479;28;20036;-69
2022/07/01 10:00:36;;;;;;;14.80;6.78;;;19.40;99.90;;;;;;5090479;28;20044;-69
2022/07/01 10:03:05;;;;;;;15.38;7.78;;;19.50;99.90;;;;;;5090260;28;20040;-69
2022/07/01 10:05:36;;;;;;;12.75;7.32;;;19.50;99.90;;;;;;5089164;28;20071;-68
2022/07/01 10:08:56;;;;;;;14.32;7.45;;;19.60;99.90;;;;;;5090635;28;20403;-69
2022/07/01 10:11:52;;;;;;;14.45;7.43;;;19.40;99.90;;;;;;5047508;28;20048;-69
2022/07/01 10:14:19;;;;;;;14.05;7.32;;;19.40;99.90;;;;;;5088539;28;20048;-69
2022/07/01 10:16:50;;;;;;;9.93;6.72;;;19.40;99.90;;;;;;5090934;28;20048;-68
2022/07/01 10:19:25;;;;;;;9.85;5.55;;;19.50;99.90;;;;;;5094814;28;20444;-69
2022/07/01 10:21:55;;;;;;;9.10;5.90;;;19.80;99.90;;;;;;5076484;28;20075;-68
2022/07/01 10:24:21;;;;;;;8.75;5.25;;;19.80;99.90;;;;;;5094320;28;20541;-68
2022/07/01 10:26:47;;;;;;;6.53;5.10;;;19.80;99.90;;;;;;5092613;28;20071;-68
2022/07/01 10:29:35;;;;;;;8.00;4.55;;;19.90;99.90;;;;;;5094573;28;20063;-67
2022/07/01 10:32:25;;;;;;;8.70;4.60;;;20.00;99.90;;;;;;5092895;28;20036;-65
2022/07/01 10:35:03;;;;;;;7.97;4.05;;;20.10;99.90;;;;;;5094386;28;20111;-68
2022/07/01 10:37:29;;;;;;;9.18;4.68;;;20.20;99.90;;;;;;5094348;28;20036;-67
2022/07/01 10:40:00;;;;;;;10.40;4.40;;;20.20;99.90;;;;;;5093011;28;20063;-67
2022/07/01 10:42:33;;;;;;;7.83;4.00;;;20.10;99.90;;;;;;5092484;28;20128;-67
2022/07/01 10:45:02;;;;;;;6.47;3.72;;;20.10;99.90;;;;;;5092777;28;20082;-67
2022/07/01 10:47:28;;;;;;;6.97;3.88;;;20.00;99.90;;;;;;5092692;28;20040;-67
2022/07/01 10:49:59;;;;;;;6.28;3.50;;;19.90;99.90;;;;;;5092722;28;20443;-67
2022/07/01 10:52:25;;;;;;;9.15;4.07;;;20.10;99.90;;;;;;5093590;28;20120;-67
2022/07/01 10:54:56;;;;;;;5.95;3.80;;;20.20;99.90;;;;;;5092387;28;20078;-67
2022/07/01 10:57:28;;;;;;;5.72;3.63;;;20.30;99.90;;;;;;5092585;28;20110;-67
2022/07/01 11:00:00;;;;;;;5.60;3.88;;;20.40;99.90;;;;;;5093769;28;20058;-67
2022/07/01 11:02:32;;;;;;;5.63;3.00;;;20.60;99.90;;;;;;5093540;28;20044;-67
2022/07/01 11:05:04;;;;;;;6.28;2.65;;;20.70;99.90;;;;;;5093718;28;20047;-68
2022/07/01 11:07:32;;;;;;;10.45;3.17;;;20.70;99.90;;;;;;5092267;28;20055;-67
2022/07/01 11:09:59;;;;;;;10.10;3.78;;;20.70;99.90;;;;;;5093786;28;20430;-67
2022/07/01 11:12:28;;;;;;;5.20;2.88;;;20.70;99.90;;;;;;5091981;28;20131;-68
2022/07/01 11:14:55;;;;;;;6.93;2.90;;;20.70;99.90;;;;;;5093576;28;20032;-67
2022/07/01 11:17:21;;;;;;;6.07;2.88;;;20.70;99.90;;;;;;5092162;28;20056;-67
2022/07/01 11:19:52;;;;;;;6.82;2.90;;;20.90;99.90;;;;;;5092286;28;20512;-67
2022/07/01 11:22:24;;;;;;;6.40;2.72;;;20.90;99.90;;;;;;5091853;28;20399;-67
2022/07/01 11:24:58;;;;;;;4.75;2.72;;;21.00;99.90;;;;;;5093415;28;20044;-68
2022/07/01 11:27:24;;;;;;;10.35;3.40;;;21.20;99.90;;;;;;5091364;28;20088;-68
2022/07/01 11:29:59;;;;;;;11.85;3.95;;;21.00;99.90;;;;;;5091905;28;20044;-67
2022/07/01 11:32:25;;;;;;;7.85;3.63;;;21.00;99.90;;;;;;5091614;28;20043;-67
2022/07/01 11:34:50;;;;;;;6.05;3.15;;;21.10;99.90;;;;;;5093311;28;20044;-67
2022/07/01 11:40:08;;;;;;;4.82;2.70;;;21.00;99.90;;;;;;5095667;28;20032;-67
2022/07/01 11:42:35;;;;;;;5.30;2.60;;;21.00;99.90;;;;;;5099320;28;20092;-67
2022/07/01 11:45:00;;;;;;;6.00;2.25;;;21.00;99.90;;;;;;5085109;28;20032;-67
2022/07/01 11:47:27;;;;;;;8.45;2.83;;;20.80;99.90;;;;;;5083062;28;20039;-67
2022/07/01 11:49:54;;;;;;;7.90;3.00;;;20.80;99.90;;;;;;5078510;28;20063;-67
2022/07/01 11:52:21;;;;;;;6.07;2.10;;;20.80;99.90;;;;;;5089728;28;20036;-67
2022/07/01 11:54:49;;;;;;;10.73;2.30;;;20.90;99.90;;;;;;5091408;28;20043;-67
2022/07/01 11:57:21;;;;;;;6.38;1.90;;;21.00;99.90;;;;;;5092663;28;20749;-68
2022/07/01 11:59:49;;;;;;;4.70;2.08;;;21.10;99.90;;;;;;5092644;28;20036;-67
2022/07/01 12:02:17;;;;;;;10.02;2.28;;;21.10;99.90;;;;;;5092668;28;20232;-70
2022/07/01 12:04:43;;;;;;;8.95;1.90;;;21.10;99.90;;;;;;5092648;28;20466;-67
2022/07/01 12:07:11;;;;;;;8.25;2.00;;;21.10;99.90;;;;;;5094116;28;20040;-69
2022/07/01 12:09:37;;;;;;;9.68;2.22;;;21.00;99.90;;;;;;5096893;28;20036;-69
2022/07/01 12:12:04;;;;;;;5.15;1.90;;;20.90;99.90;;;;;;5096125;28;20036;-70
2022/07/01 12:14:33;;;;;;;7.78;2.20;;;20.80;99.90;;;;;;5094346;28;20044;-71
2022/07/01 12:17:01;;;;;;;7.25;2.30;;;20.70;99.90;;;;;;5093796;28;20044;-70
2022/07/01 12:19:28;;;;;;;14.80;2.65;;;20.50;99.90;;;;;;5074922;28;20127;-70
2022/07/01 12:22:00;;;;;;;5.68;2.08;;;20.50;99.90;;;;;;5094671;28;20039;-70
2022/07/01 12:24:26;;;;;;;11.73;2.07;;;20.50;99.90;;;;;;5074767;28;20044;-70
2022/07/01 12:26:58;;;;;;;10.57;2.05;;;20.40;99.90;;;;;;5090407;28;20509;-71
2022/07/01 12:29:25;;;;;;;6.57;1.70;;;20.70;99.90;;;;;;5091031;28;20059;-70
2022/07/01 12:31:59;;;;;;;6.25;1.23;;;20.70;99.90;;;;;;5089320;28;20064;-70
2022/07/01 12:34:46;;;;;;;5.47;1.30;;;20.70;99.90;;;;;;5088394;28;20082;-72
2022/07/01 12:37:13;;;;;;;3.50;1.50;;;20.80;99.90;;;;;;5091001;28;20063;-72
2022/07/01 12:39:56;;;;;;;4.88;1.77;;;20.90;99.90;;;;;;5089898;28;20043;-72
2022/07/01 12:42:33;;;;;;;4.95;1.10;;;20.90;99.90;;;;;;5090249;28;20127;-71
2022/07/01 12:45:05;;;;;;;3.75;1.20;;;21.00;99.90;;;;;;5090248;28;20048;-72
2022/07/01 12:47:33;;;;;;;7.13;1.30;;;21.00;99.90;;;;;;5090256;28;20056;-71
2022/07/01 12:50:32;;;;;;;7.63;1.38;;;21.00;99.90;;;;;;5090324;28;20040;-72